createdAt,value
2019-05-16T00:00:25.292Z,5.9445
2019-05-16T00:01:29.950Z,5.9285
2019-05-16T00:02:33.305Z,5.8591
2019-05-16T00:03:38.288Z,5.8324
2019-05-16T00:04:41.280Z,5.8030
2019-05-16T00:05:53.368Z,5.8457
2019-05-16T00:06:52.300Z,5.8030
2019-05-16T00:07:55.304Z,5.8030
2019-05-16T00:08:58.572Z,5.8164
2019-05-16T00:10:01.308Z,5.8591
2019-05-16T00:11:04.270Z,5.8457
2019-05-16T00:12:08.802Z,5.8885
2019-05-16T00:13:12.273Z,5.8724
2019-05-16T00:14:15.313Z,5.8457
2019-05-16T00:15:18.405Z,5.8457
2019-05-16T00:16:22.317Z,5.8885
2019-05-16T00:17:25.267Z,5.9018
2019-05-16T00:18:28.517Z,5.8324
2019-05-16T00:19:30.360Z,5.8324
2019-05-16T00:20:33.290Z,5.7763
2019-05-16T00:21:38.215Z,5.7336
2019-05-16T00:22:43.321Z,5.7042
2019-05-16T00:23:48.300Z,5.6775
2019-05-16T00:24:51.332Z,5.6908
2019-05-16T00:25:54.275Z,5.6214
2019-05-16T00:26:58.001Z,5.6081
2019-05-16T00:28:01.303Z,5.5920
2019-05-16T00:29:04.295Z,5.5066
2019-05-16T00:30:08.617Z,5.5066
2019-05-16T00:31:12.315Z,5.4505
2019-05-16T00:32:15.281Z,5.3944
2019-05-16T00:33:18.467Z,5.3651
2019-05-16T00:34:21.291Z,5.3090
2019-05-16T00:35:24.338Z,5.3090
2019-05-16T00:36:27.803Z,5.2102
2019-05-16T00:37:31.267Z,5.2396
2019-05-16T00:38:34.311Z,5.2102
2019-05-16T00:39:38.796Z,5.2102
2019-05-16T00:40:42.372Z,5.2102
2019-05-16T00:41:45.264Z,5.1701
2019-05-16T00:42:49.105Z,5.1408
2019-05-16T00:43:52.285Z,5.1541
2019-05-16T00:44:55.331Z,5.1408
2019-05-16T00:45:58.947Z,5.0420
2019-05-16T00:47:02.332Z,5.1274
2019-05-16T00:48:05.282Z,5.0713
2019-05-16T00:49:08.483Z,5.0420
2019-05-16T00:50:11.366Z,5.0713
2019-05-16T00:51:14.285Z,5.0580
2019-05-16T00:52:18.367Z,5.0420
2019-05-16T00:53:21.311Z,5.0286
2019-05-16T00:54:24.336Z,5.0019
2019-05-16T00:55:28.366Z,5.0153
2019-05-16T00:56:31.277Z,4.9725
2019-05-16T00:57:33.340Z,4.9458
2019-05-16T00:58:37.804Z,4.9298
2019-05-16T00:59:41.326Z,4.9458
2019-05-16T01:00:44.282Z,4.9031
2019-05-16T01:01:50.060Z,4.9298
2019-05-16T01:02:53.299Z,4.9165
2019-05-16T01:03:58.468Z,4.9031
2019-05-16T01:05:01.328Z,4.9031
2019-05-16T01:06:15.834Z,4.9031
2019-05-16T01:07:12.281Z,4.9298
2019-05-16T01:08:15.305Z,4.8737
2019-05-16T01:09:18.848Z,4.9031
2019-05-16T01:10:22.295Z,4.8604
2019-05-16T01:11:27.634Z,4.8737
2019-05-16T01:12:29.309Z,4.8604
2019-05-16T01:13:32.301Z,4.8470
2019-05-16T01:14:35.311Z,4.8337
2019-05-16T01:15:38.319Z,4.8470
2019-05-16T01:16:41.291Z,4.8043
2019-05-16T01:17:44.324Z,4.8604
2019-05-16T01:18:48.617Z,4.8177
2019-05-16T01:19:52.341Z,4.8177
2019-05-16T01:20:55.303Z,4.8177
2019-05-16T01:21:59.014Z,4.8337
2019-05-16T01:23:02.306Z,4.7749
2019-05-16T01:24:05.318Z,4.7749
2019-05-16T01:25:09.412Z,4.7616
2019-05-16T01:26:12.313Z,4.7616
2019-05-16T01:27:15.291Z,4.7188
2019-05-16T01:28:19.294Z,4.7616
2019-05-16T01:29:22.299Z,4.7055
2019-05-16T01:30:25.344Z,4.7055
2019-05-16T01:31:28.303Z,4.6921
2019-05-16T01:32:32.213Z,4.7188
2019-05-16T01:33:35.291Z,4.6788
2019-05-16T01:34:38.352Z,4.6494
2019-05-16T01:35:41.836Z,4.6494
2019-05-16T01:36:45.342Z,4.6628
2019-05-16T01:37:48.748Z,4.6067
2019-05-16T01:38:52.349Z,4.6921
2019-05-16T01:39:55.295Z,4.6628
2019-05-16T01:40:58.483Z,4.6227
2019-05-16T01:42:01.310Z,4.6227
2019-05-16T01:43:03.283Z,4.6494
2019-05-16T01:44:07.870Z,4.6494
2019-05-16T01:45:11.327Z,4.6227
2019-05-16T01:46:18.048Z,4.6227
2019-05-16T01:47:23.305Z,4.5933
2019-05-16T01:48:29.150Z,4.5800
2019-05-16T01:49:34.291Z,4.5933
2019-05-16T01:50:38.818Z,4.5933
2019-05-16T01:51:42.277Z,4.6067
2019-05-16T01:52:45.302Z,4.5800
2019-05-16T01:53:48.845Z,4.5933
2019-05-16T01:54:51.266Z,4.6227
2019-05-16T01:55:54.352Z,4.5800
2019-05-16T01:56:59.377Z,4.5506
2019-05-16T01:58:03.352Z,4.5800
2019-05-16T01:59:08.869Z,4.5506
2019-05-16T02:00:11.295Z,4.5373
2019-05-16T02:01:15.911Z,4.5506
2019-05-16T02:02:19.305Z,4.5800
2019-05-16T02:03:22.312Z,4.5800
2019-05-16T02:04:25.274Z,4.5373
2019-05-16T02:05:28.306Z,4.5239
2019-05-16T02:06:31.298Z,4.5506
2019-05-16T02:07:34.322Z,4.5373
2019-05-16T02:08:38.032Z,4.4945
2019-05-16T02:09:41.308Z,4.5239
2019-05-16T02:10:44.276Z,4.5239
2019-05-16T02:11:48.107Z,4.4545
2019-05-16T02:12:51.289Z,4.4678
2019-05-16T02:13:54.293Z,4.4678
2019-05-16T02:14:58.728Z,4.4385
2019-05-16T02:16:02.297Z,4.4945
2019-05-16T02:17:05.332Z,4.4385
2019-05-16T02:18:08.479Z,4.4385
2019-05-16T02:19:11.325Z,4.4091
2019-05-16T02:20:14.305Z,4.4091
2019-05-16T02:21:18.189Z,4.3797
2019-05-16T02:22:21.296Z,4.3664
2019-05-16T02:23:24.285Z,4.3103
2019-05-16T02:24:28.494Z,4.3103
2019-05-16T02:25:30.280Z,4.3236
2019-05-16T02:26:33.328Z,4.3397
2019-05-16T02:27:40.598Z,4.2969
2019-05-16T02:28:44.341Z,4.2836
2019-05-16T02:29:47.270Z,4.2836
2019-05-16T02:30:51.368Z,4.2542
2019-05-16T02:31:55.289Z,4.2409
2019-05-16T02:33:01.088Z,4.2676
2019-05-16T02:34:04.806Z,4.2275
2019-05-16T02:35:11.264Z,4.2115
2019-05-16T02:36:15.331Z,4.1981
2019-05-16T02:37:25.811Z,4.1981
2019-05-16T02:38:26.315Z,4.1554
2019-05-16T02:39:30.589Z,4.1848
2019-05-16T02:40:33.306Z,4.1981
2019-05-16T02:41:36.257Z,4.1421
2019-05-16T02:42:41.951Z,4.1287
2019-05-16T02:43:45.279Z,4.0993
2019-05-16T02:44:51.105Z,4.1287
2019-05-16T02:45:54.252Z,4.0860
2019-05-16T02:46:57.248Z,4.0726
2019-05-16T02:48:01.346Z,4.0566
2019-05-16T02:49:04.294Z,4.0166
2019-05-16T02:50:06.311Z,4.0005
2019-05-16T02:51:11.079Z,4.0433
2019-05-16T02:52:14.319Z,4.0005
2019-05-16T02:53:17.307Z,4.0005
2019-05-16T02:54:21.813Z,4.0005
2019-05-16T02:55:25.303Z,4.0005
2019-05-16T02:56:27.319Z,3.9738
2019-05-16T02:57:31.660Z,4.0005
2019-05-16T02:58:35.303Z,3.9872
2019-05-16T02:59:41.275Z,3.9605
2019-05-16T03:00:44.286Z,3.8884
2019-05-16T03:01:47.315Z,3.9044
2019-05-16T03:02:50.523Z,3.9178
2019-05-16T03:03:53.323Z,3.9044
2019-05-16T03:04:56.284Z,3.8884
2019-05-16T03:06:01.392Z,3.8483
2019-05-16T03:07:04.315Z,3.9044
2019-05-16T03:08:07.284Z,3.9044
2019-05-16T03:09:11.243Z,3.8617
2019-05-16T03:10:14.299Z,3.8483
2019-05-16T03:11:20.711Z,3.8056
2019-05-16T03:12:23.272Z,3.8617
2019-05-16T03:13:26.337Z,3.8190
2019-05-16T03:14:31.619Z,3.8323
2019-05-16T03:15:34.298Z,3.8190
2019-05-16T03:16:37.284Z,3.8190
2019-05-16T03:17:40.446Z,3.8190
2019-05-16T03:18:43.331Z,3.8483
2019-05-16T03:19:46.284Z,3.7923
2019-05-16T03:20:51.007Z,3.8323
2019-05-16T03:21:54.277Z,3.8190
2019-05-16T03:22:57.324Z,3.8323
2019-05-16T03:24:00.854Z,3.8056
2019-05-16T03:25:04.298Z,3.8190
2019-05-16T03:26:07.285Z,3.7762
2019-05-16T03:27:10.825Z,3.7923
2019-05-16T03:28:14.305Z,3.8056
2019-05-16T03:29:17.314Z,3.8323
2019-05-16T03:30:23.728Z,3.8190
2019-05-16T03:31:26.282Z,3.7923
2019-05-16T03:32:34.060Z,3.8056
2019-05-16T03:33:48.442Z,3.8056
2019-05-16T03:34:45.328Z,3.7629
2019-05-16T03:35:53.657Z,3.8323
2019-05-16T03:36:56.336Z,3.8617
2019-05-16T03:38:01.451Z,3.8483
2019-05-16T03:39:10.488Z,3.8617
2019-05-16T03:40:13.274Z,3.9044
2019-05-16T03:41:16.319Z,3.9178
2019-05-16T03:42:20.461Z,3.8884
2019-05-16T03:43:23.277Z,3.8617
2019-05-16T03:44:26.352Z,3.8750
2019-05-16T03:45:31.791Z,3.9044
2019-05-16T03:46:36.377Z,3.8617
2019-05-16T03:47:42.619Z,3.8617
2019-05-16T03:48:46.346Z,3.9178
2019-05-16T03:49:51.728Z,3.8483
2019-05-16T03:50:55.284Z,3.8617
2019-05-16T03:52:01.342Z,3.8483
2019-05-16T03:53:04.306Z,3.8617
2019-05-16T03:54:07.352Z,3.8323
2019-05-16T03:55:10.999Z,3.8056
2019-05-16T03:56:14.295Z,3.8617
2019-05-16T03:57:20.907Z,3.8190
2019-05-16T03:58:24.310Z,3.8190
2019-05-16T03:59:27.326Z,3.8190
2019-05-16T04:00:31.586Z,3.8190
2019-05-16T04:01:33.296Z,3.7923
2019-05-16T04:02:35.489Z,3.8056
2019-05-16T04:03:41.229Z,3.7762
2019-05-16T04:04:44.301Z,3.8056
2019-05-16T04:05:47.282Z,3.7923
2019-05-16T04:06:50.764Z,3.8056
2019-05-16T04:08:10.161Z,3.8056
2019-05-16T04:09:01.717Z,3.8190
2019-05-16T04:10:06.352Z,3.8056
2019-05-16T04:11:11.734Z,3.8617
2019-05-16T04:12:14.262Z,3.8323
2019-05-16T04:13:17.302Z,3.8190
2019-05-16T04:14:21.365Z,3.7629
2019-05-16T04:15:24.265Z,3.7629
2019-05-16T04:16:31.318Z,3.8323
2019-05-16T04:17:34.293Z,3.8190
2019-05-16T04:18:37.277Z,3.8483
2019-05-16T04:19:41.531Z,3.8056
2019-05-16T04:20:44.300Z,3.8056
2019-05-16T04:21:50.824Z,3.8190
2019-05-16T04:22:54.300Z,3.8056
2019-05-16T04:23:57.321Z,3.8190
2019-05-16T04:25:01.896Z,3.8190
2019-05-16T04:26:05.287Z,3.8190
2019-05-16T04:27:07.291Z,3.8056
2019-05-16T04:28:11.578Z,3.7629
2019-05-16T04:29:14.333Z,3.8056
2019-05-16T04:30:17.362Z,3.8190
2019-05-16T04:31:22.087Z,3.8190
2019-05-16T04:32:25.351Z,3.8323
2019-05-16T04:33:30.987Z,3.8190
2019-05-16T04:34:34.351Z,3.8323
2019-05-16T04:35:37.288Z,3.8750
2019-05-16T04:36:40.829Z,3.8483
2019-05-16T04:37:44.321Z,3.8483
2019-05-16T04:38:47.331Z,3.8750
2019-05-16T04:39:50.764Z,3.8750
2019-05-16T04:40:54.294Z,3.8884
2019-05-16T04:41:57.306Z,3.9044
2019-05-16T04:43:01.365Z,3.9445
2019-05-16T04:44:04.907Z,3.9445
2019-05-16T04:45:11.515Z,3.9311
2019-05-16T04:46:14.317Z,3.9738
2019-05-16T04:47:17.326Z,3.9311
2019-05-16T04:48:22.290Z,3.9445
2019-05-16T04:49:25.352Z,3.9445
2019-05-16T04:50:30.968Z,3.9872
2019-05-16T04:51:34.297Z,4.0166
2019-05-16T04:52:37.291Z,4.0299
2019-05-16T04:53:42.464Z,4.0433
2019-05-16T04:54:46.350Z,4.0993
2019-05-16T04:55:51.566Z,4.0726
2019-05-16T04:56:54.327Z,4.1287
2019-05-16T04:57:57.310Z,4.1287
2019-05-16T04:59:00.550Z,4.2115
2019-05-16T05:00:04.303Z,4.1848
2019-05-16T05:01:07.329Z,4.2115
2019-05-16T05:02:12.220Z,4.1981
2019-05-16T05:03:16.298Z,4.2409
2019-05-16T05:04:21.094Z,4.2275
2019-05-16T05:05:24.339Z,4.2542
2019-05-16T05:06:27.313Z,4.3236
2019-05-16T05:07:31.242Z,4.3397
2019-05-16T05:08:49.121Z,4.3797
2019-05-16T05:09:42.326Z,4.3797
2019-05-16T05:10:45.327Z,4.3957
2019-05-16T05:11:48.289Z,4.4224
2019-05-16T05:12:51.461Z,4.3797
2019-05-16T05:13:55.290Z,4.3957
2019-05-16T05:15:00.998Z,4.3797
2019-05-16T05:16:04.306Z,4.4224
2019-05-16T05:17:07.289Z,4.4224
2019-05-16T05:18:10.347Z,4.4812
2019-05-16T05:19:13.314Z,4.4224
2019-05-16T05:20:16.331Z,4.4385
2019-05-16T05:21:20.953Z,4.4812
2019-05-16T05:22:24.302Z,4.4385
2019-05-16T05:23:29.961Z,4.4545
2019-05-16T05:24:33.313Z,4.4945
2019-05-16T05:25:36.314Z,4.5933
2019-05-16T05:26:41.460Z,4.5239
2019-05-16T05:27:45.310Z,4.5506
2019-05-16T05:28:50.573Z,4.5800
2019-05-16T05:29:54.305Z,4.5800
2019-05-16T05:30:59.549Z,4.6361
2019-05-16T05:32:04.702Z,4.5506
2019-05-16T05:33:10.117Z,4.6788
2019-05-16T05:34:13.332Z,4.6628
2019-05-16T05:35:15.313Z,4.6788
2019-05-16T05:36:20.815Z,4.6494
2019-05-16T05:37:24.290Z,4.6361
2019-05-16T05:38:27.273Z,4.7482
2019-05-16T05:39:30.451Z,4.7188
2019-05-16T05:40:33.321Z,4.8337
2019-05-16T05:41:36.365Z,4.9165
2019-05-16T05:42:39.869Z,5.0420
2019-05-16T05:43:42.340Z,5.0019
2019-05-16T05:44:45.296Z,5.0713
2019-05-16T05:45:50.901Z,5.0847
2019-05-16T05:46:54.283Z,5.1701
2019-05-16T05:48:00.003Z,5.1835
2019-05-16T05:49:03.294Z,5.2663
2019-05-16T05:50:06.304Z,5.2396
2019-05-16T05:51:11.265Z,5.2823
2019-05-16T05:52:15.307Z,5.1701
2019-05-16T05:53:20.633Z,5.2396
2019-05-16T05:54:24.282Z,5.3090
2019-05-16T05:55:27.322Z,5.2262
2019-05-16T05:56:30.612Z,5.3944
2019-05-16T05:57:33.357Z,5.5653
2019-05-16T05:58:36.304Z,5.4078
2019-05-16T05:59:40.462Z,5.4505
2019-05-16T06:00:43.305Z,5.3944
2019-05-16T06:01:46.307Z,5.3090
2019-05-16T06:02:50.846Z,5.4772
2019-05-16T06:03:54.295Z,5.5520
2019-05-16T06:04:59.564Z,5.5920
2019-05-16T06:06:03.300Z,5.6214
2019-05-16T06:07:06.340Z,5.5787
2019-05-16T06:08:10.679Z,5.7603
2019-05-16T06:09:25.271Z,5.7202
2019-05-16T06:10:22.317Z,5.8591
2019-05-16T06:11:25.333Z,5.5066
2019-05-16T06:12:30.363Z,5.5787
2019-05-16T06:13:33.289Z,5.5066
2019-05-16T06:14:36.328Z,5.6908
2019-05-16T06:15:39.967Z,5.7763
2019-05-16T06:16:43.302Z,5.7202
2019-05-16T06:17:46.299Z,5.8591
2019-05-16T06:18:50.291Z,5.7336
2019-05-16T06:19:53.302Z,6.0273
2019-05-16T06:20:56.289Z,6.0567
2019-05-16T06:22:01.002Z,5.9445
2019-05-16T06:23:04.307Z,6.0700
2019-05-16T06:24:07.355Z,6.0433
2019-05-16T06:25:13.145Z,6.0994
2019-05-16T06:26:20.148Z,6.2516
2019-05-16T06:27:23.301Z,6.3371
2019-05-16T06:28:26.349Z,6.4359
2019-05-16T06:29:30.965Z,6.0433
2019-05-16T06:30:34.319Z,6.1955
2019-05-16T06:31:37.307Z,6.2676
2019-05-16T06:32:40.342Z,6.2516
2019-05-16T06:33:43.355Z,6.3237
2019-05-16T06:34:46.297Z,6.3504
2019-05-16T06:35:51.330Z,6.3077
2019-05-16T06:36:54.287Z,6.5747
2019-05-16T06:37:57.297Z,6.4065
2019-05-16T06:39:00.318Z,6.2810
2019-05-16T06:40:03.329Z,6.6628
2019-05-16T06:41:06.309Z,6.3504
2019-05-16T06:42:09.835Z,6.4492
2019-05-16T06:43:13.328Z,6.3638
2019-05-16T06:44:16.308Z,6.3504
2019-05-16T06:45:20.485Z,6.5881
2019-05-16T06:46:24.325Z,6.6896
2019-05-16T06:47:27.334Z,6.6041
2019-05-16T06:48:30.603Z,6.8738
2019-05-16T06:49:34.343Z,6.5320
2019-05-16T06:50:37.298Z,6.7456
2019-05-16T06:51:40.344Z,6.7189
2019-05-16T06:52:45.773Z,6.4492
2019-05-16T06:53:50.073Z,6.3371
2019-05-16T06:54:53.917Z,6.1822
2019-05-16T06:55:56.301Z,6.2516
2019-05-16T06:57:00.136Z,6.2516
2019-05-16T06:58:03.334Z,6.7456
2019-05-16T06:59:06.335Z,6.7323
2019-05-16T07:00:10.980Z,6.7884
2019-05-16T07:01:14.337Z,6.6896
2019-05-16T07:02:27.791Z,6.7323
2019-05-16T07:03:25.359Z,6.9005
2019-05-16T07:04:30.329Z,7.3091
2019-05-16T07:05:32.345Z,6.7617
2019-05-16T07:06:51.668Z,6.8311
2019-05-16T07:07:43.326Z,6.7323
2019-05-16T07:08:46.292Z,6.9139
2019-05-16T07:09:59.918Z,6.9432
2019-05-16T07:10:57.353Z,6.8177
2019-05-16T07:12:00.311Z,6.8311
2019-05-16T07:13:03.355Z,6.9005
2019-05-16T07:14:06.297Z,7.4052
2019-05-16T07:15:12.464Z,7.1382
2019-05-16T07:16:15.310Z,7.0554
2019-05-16T07:17:20.198Z,7.1382
2019-05-16T07:18:22.349Z,7.1942
2019-05-16T07:19:25.335Z,7.0981
2019-05-16T07:20:30.205Z,6.8578
2019-05-16T07:21:33.273Z,7.2103
2019-05-16T07:22:36.340Z,7.1248
2019-05-16T07:23:40.466Z,7.3491
2019-05-16T07:24:42.327Z,7.4613
2019-05-16T07:25:45.328Z,7.1942
2019-05-16T07:26:50.023Z,7.2370
2019-05-16T07:27:53.341Z,7.0420
2019-05-16T07:28:56.297Z,7.1542
2019-05-16T07:30:01.069Z,7.5601
2019-05-16T07:31:14.840Z,7.4907
2019-05-16T07:32:12.681Z,7.3651
2019-05-16T07:33:16.314Z,7.5040
2019-05-16T07:34:20.643Z,7.2930
2019-05-16T07:35:24.313Z,7.5895
2019-05-16T07:36:27.341Z,7.3358
2019-05-16T07:37:31.610Z,7.7737
2019-05-16T07:38:35.311Z,7.5334
2019-05-16T07:39:39.295Z,7.7283
2019-05-16T07:40:45.301Z,7.4052
2019-05-16T07:41:50.663Z,7.9152
2019-05-16T07:42:54.323Z,7.9152
2019-05-16T07:43:57.327Z,7.7871
2019-05-16T07:45:00.687Z,7.9553
2019-05-16T07:46:04.337Z,7.7604
2019-05-16T07:47:07.310Z,7.9553
2019-05-16T07:48:10.758Z,7.8859
2019-05-16T07:49:14.306Z,8.0114
2019-05-16T07:50:16.335Z,8.0541
2019-05-16T07:51:20.519Z,8.2090
2019-05-16T07:52:23.363Z,8.3345
2019-05-16T07:53:26.336Z,8.3772
2019-05-16T07:54:34.087Z,8.2784
2019-05-16T07:55:37.315Z,8.3078
2019-05-16T07:56:40.890Z,8.2357
2019-05-16T07:57:44.353Z,8.3638
2019-05-16T07:58:47.311Z,8.3906
2019-05-16T07:59:50.667Z,8.2918
2019-05-16T08:01:02.752Z,8.2357
2019-05-16T08:02:02.332Z,8.3078
2019-05-16T08:03:05.325Z,8.0835
2019-05-16T08:04:10.438Z,8.2223
2019-05-16T08:05:14.352Z,8.2357
2019-05-16T08:06:17.313Z,8.1956
2019-05-16T08:07:20.360Z,8.2357
2019-05-16T08:08:24.545Z,7.7604
2019-05-16T08:09:27.317Z,7.8298
2019-05-16T08:10:37.935Z,7.8992
2019-05-16T08:11:40.656Z,7.7150
2019-05-16T08:12:44.394Z,7.7604
2019-05-16T08:13:47.340Z,8.3211
2019-05-16T08:14:50.378Z,8.2650
2019-05-16T08:15:53.302Z,8.7564
2019-05-16T08:16:56.312Z,8.5882
2019-05-16T08:18:03.242Z,8.5454
2019-05-16T08:19:06.347Z,8.4894
2019-05-16T08:20:10.893Z,8.5454
2019-05-16T08:21:16.893Z,8.3772
2019-05-16T08:22:22.529Z,8.3078
2019-05-16T08:23:26.334Z,8.0968
2019-05-16T08:24:30.580Z,8.1529
2019-05-16T08:25:36.304Z,8.1529
2019-05-16T08:27:47.362Z,8.1662
2019-05-16T08:28:50.668Z,8.0968
2019-05-16T08:29:54.304Z,8.3772
2019-05-16T08:31:00.594Z,8.5454
2019-05-16T08:32:04.311Z,8.7270
2019-05-16T08:33:07.314Z,8.6576
2019-05-16T08:34:12.185Z,8.7831
2019-05-16T08:35:15.322Z,8.8285
2019-05-16T08:36:20.640Z,8.7991
2019-05-16T08:38:32.318Z,8.6576
2019-05-16T08:39:35.311Z,8.4199
2019-05-16T08:41:01.221Z,8.5027
2019-05-16T08:41:46.289Z,8.8125
2019-05-16T08:42:51.658Z,8.7991
2019-05-16T08:43:54.330Z,8.7564
2019-05-16T08:44:57.308Z,8.8712
2019-05-16T08:46:01.038Z,8.9139
2019-05-16T08:47:06.272Z,8.8846
2019-05-16T08:48:11.502Z,9.0261
2019-05-16T08:49:14.374Z,9.3198
2019-05-16T08:50:08.650Z,8.6309
2019-05-16T08:50:17.299Z,9.2210
2019-05-16T08:51:22.182Z,9.1089
2019-05-16T08:52:25.266Z,9.2077
2019-05-16T08:53:31.401Z,9.2210
2019-05-16T08:54:36.396Z,9.1943
2019-05-16T08:55:43.328Z,9.2370
2019-05-16T08:56:46.333Z,9.4186
2019-05-16T08:57:53.017Z,9.3492
2019-05-16T08:58:56.345Z,9.4881
2019-05-16T09:00:01.376Z,9.7551
2019-05-16T09:01:05.303Z,9.8272
2019-05-16T09:02:12.001Z,9.6296
2019-05-16T09:03:15.320Z,9.5174
2019-05-16T09:04:23.862Z,9.5308
2019-05-16T09:05:26.440Z,9.4614
2019-05-16T09:06:31.993Z,9.6857
2019-05-16T09:07:35.365Z,9.7284
2019-05-16T09:08:38.339Z,9.7871
2019-05-16T09:09:48.696Z,9.9393
2019-05-16T09:10:10.717Z,8.0835
2019-05-16T09:11:00.766Z,9.9554
2019-05-16T09:11:57.575Z,9.8138
2019-05-16T09:13:00.383Z,9.8138
2019-05-16T09:14:03.313Z,9.8138
2019-05-16T09:15:07.644Z,9.7871
2019-05-16T09:16:11.331Z,9.9126
2019-05-16T09:17:14.339Z,9.8833
2019-05-16T09:18:17.869Z,9.8138
2019-05-16T09:19:21.344Z,10.0809
2019-05-16T09:20:24.299Z,10.2358
2019-05-16T09:21:27.640Z,9.9687
2019-05-16T09:22:31.305Z,10.2064
2019-05-16T09:23:34.305Z,9.9393
2019-05-16T09:24:37.824Z,10.0675
2019-05-16T09:25:41.264Z,10.0809
2019-05-16T09:26:47.161Z,9.8993
2019-05-16T09:27:50.312Z,9.9260
2019-05-16T09:28:53.299Z,9.8833
2019-05-16T09:29:56.900Z,10.2625
2019-05-16T09:31:00.300Z,10.1930
2019-05-16T09:32:15.918Z,9.9126
2019-05-16T09:33:11.266Z,9.5869
2019-05-16T09:34:17.302Z,9.8566
2019-05-16T09:35:21.332Z,9.8699
2019-05-16T09:36:24.389Z,9.6990
2019-05-16T09:37:27.299Z,9.8566
2019-05-16T09:38:30.302Z,9.7551
2019-05-16T09:39:33.319Z,9.6429
2019-05-16T09:40:38.877Z,9.7417
2019-05-16T09:41:50.609Z,9.6990
2019-05-16T09:42:50.310Z,9.7417
2019-05-16T09:43:53.346Z,9.8566
2019-05-16T09:44:57.740Z,9.7124
2019-05-16T09:46:07.590Z,9.8566
2019-05-16T09:47:09.311Z,9.9554
2019-05-16T09:48:12.339Z,9.9554
2019-05-16T09:49:20.392Z,10.1930
2019-05-16T09:50:23.321Z,10.0515
2019-05-16T09:51:27.154Z,10.1503
2019-05-16T09:52:30.341Z,10.0809
2019-05-16T09:53:33.305Z,10.0942
2019-05-16T09:54:37.902Z,9.9687
2019-05-16T09:55:41.289Z,10.0675
2019-05-16T09:56:46.369Z,10.0675
2019-05-16T09:57:50.346Z,10.0381
2019-05-16T09:58:52.313Z,9.5869
2019-05-16T09:59:57.203Z,9.7711
2019-05-16T10:01:00.314Z,9.8005
2019-05-16T10:02:02.361Z,9.6990
2019-05-16T10:03:07.096Z,9.7124
2019-05-16T10:04:10.287Z,9.8272
2019-05-16T10:05:13.873Z,9.9393
2019-05-16T10:06:19.135Z,9.7284
2019-05-16T10:07:22.370Z,9.4614
2019-05-16T10:08:26.554Z,9.6002
2019-05-16T10:09:40.735Z,9.5735
2019-05-16T10:10:38.330Z,10.0675
2019-05-16T10:11:42.550Z,10.1236
2019-05-16T10:12:46.287Z,10.2918
2019-05-16T10:13:49.371Z,10.0248
2019-05-16T10:14:52.310Z,10.0942
2019-05-16T10:15:55.336Z,10.1503
2019-05-16T10:16:58.328Z,10.0114
2019-05-16T10:18:01.320Z,10.1930
2019-05-16T10:19:04.291Z,10.1076
2019-05-16T10:20:07.886Z,10.1637
2019-05-16T10:21:11.351Z,10.0942
2019-05-16T10:22:16.888Z,10.1930
2019-05-16T10:23:20.335Z,10.2918
2019-05-16T10:27:39.680Z,10.2064
2019-05-16T10:28:42.304Z,10.1797
2019-05-16T10:29:48.094Z,10.3052
2019-05-16T10:30:52.366Z,10.4467
2019-05-16T10:31:56.860Z,10.4173
2019-05-16T10:33:00.978Z,10.4868
2019-05-16T10:34:03.350Z,10.6310
2019-05-16T10:35:06.332Z,10.3746
2019-05-16T10:36:09.333Z,10.7858
2019-05-16T10:37:12.311Z,10.7725
2019-05-16T10:38:15.305Z,10.8286
2019-05-16T10:39:18.303Z,11.1650
2019-05-16T10:40:21.341Z,11.2345
2019-05-16T10:41:24.318Z,10.9541
2019-05-16T10:42:28.906Z,10.9541
2019-05-16T10:43:32.296Z,10.8553
2019-05-16T10:44:38.542Z,11.0101
2019-05-16T10:45:42.303Z,10.6176
2019-05-16T10:46:47.645Z,10.6577
2019-05-16T10:47:50.290Z,10.9407
2019-05-16T10:48:52.627Z,10.8980
2019-05-16T10:49:56.487Z,10.7298
2019-05-16T10:51:00.296Z,10.6016
2019-05-16T10:52:03.341Z,10.7565
2019-05-16T10:53:23.699Z,10.7992
2019-05-16T10:54:17.715Z,11.0662
2019-05-16T10:55:21.329Z,11.4481
2019-05-16T10:56:24.356Z,11.6030
2019-05-16T10:57:29.804Z,11.7845
2019-05-16T10:58:41.401Z,11.2345
2019-05-16T11:00:06.832Z,11.0796
2019-05-16T11:01:11.159Z,11.6163
2019-05-16T11:01:59.686Z,11.4908
2019-05-16T11:03:03.317Z,11.5469
2019-05-16T11:04:07.474Z,11.3920
2019-05-16T11:05:25.133Z,11.2772
2019-05-16T11:06:25.580Z,11.1784
2019-05-16T11:07:29.878Z,11.3359
2019-05-16T11:08:33.344Z,11.3039
2019-05-16T11:09:39.175Z,11.3172
2019-05-16T11:10:42.463Z,11.2772
2019-05-16T11:11:47.621Z,11.3626
2019-05-16T11:12:55.209Z,11.2905
2019-05-16T11:13:58.332Z,11.2612
2019-05-16T11:15:01.351Z,11.6030
2019-05-16T11:16:06.941Z,11.8112
2019-05-16T11:17:13.864Z,11.8833
2019-05-16T11:18:17.640Z,11.5042
2019-05-16T11:19:24.445Z,11.7552
2019-05-16T11:20:28.369Z,11.7285
2019-05-16T11:21:31.350Z,11.6724
2019-05-16T11:22:36.787Z,11.4908
2019-05-16T11:23:40.301Z,11.6991
2019-05-16T11:24:43.330Z,11.3787
2019-05-16T11:25:47.098Z,11.6430
2019-05-16T11:26:50.446Z,11.9100
2019-05-16T11:27:53.281Z,11.8540
2019-05-16T11:28:57.351Z,11.6297
2019-05-16T11:30:00.313Z,11.4614
2019-05-16T11:31:04.029Z,11.4481
2019-05-16T11:32:07.356Z,11.9528
2019-05-16T11:33:10.307Z,12.3346
2019-05-16T11:34:13.333Z,12.2091
2019-05-16T11:35:17.135Z,12.2919
2019-05-16T11:36:20.323Z,12.4895
2019-05-16T11:37:23.347Z,12.7272
2019-05-16T11:38:26.343Z,12.4735
2019-05-16T11:39:29.281Z,12.3613
2019-05-16T11:40:32.288Z,12.4735
2019-05-16T11:41:35.364Z,12.2091
2019-05-16T11:42:38.396Z,11.7979
2019-05-16T11:43:41.312Z,12.2225
2019-05-16T11:44:47.592Z,12.3053
2019-05-16T11:45:51.336Z,12.9114
2019-05-16T11:46:54.300Z,13.2639
2019-05-16T11:47:57.383Z,13.1785
2019-05-16T11:49:00.317Z,13.0957
2019-05-16T11:50:03.319Z,12.9274
2019-05-16T11:51:07.081Z,13.2906
2019-05-16T11:52:10.323Z,13.4749
2019-05-16T11:53:13.379Z,13.0663
2019-05-16T11:54:16.338Z,13.2212
2019-05-16T11:55:19.328Z,13.1384
2019-05-16T11:56:22.286Z,13.1517
2019-05-16T11:57:25.349Z,13.2505
2019-05-16T11:58:28.343Z,12.9835
2019-05-16T11:59:31.348Z,13.0102
2019-05-16T12:00:33.303Z,13.5443
2019-05-16T12:01:36.952Z,13.3333
2019-05-16T12:02:42.674Z,13.0396
2019-05-16T12:03:46.829Z,13.0236
2019-05-16T12:04:50.306Z,13.0957
2019-05-16T12:05:53.307Z,12.8260
2019-05-16T12:06:57.433Z,12.8687
2019-05-16T12:08:00.341Z,12.0649
2019-05-16T12:09:03.342Z,12.6017
2019-05-16T12:10:07.610Z,12.6844
2019-05-16T12:11:10.321Z,13.1090
2019-05-16T12:12:13.304Z,13.0529
2019-05-16T12:13:25.405Z,12.7405
2019-05-16T12:14:24.344Z,12.7565
2019-05-16T12:15:27.518Z,13.0663
2019-05-16T12:16:30.358Z,13.3467
2019-05-16T12:17:33.300Z,13.6698
2019-05-16T12:18:37.286Z,13.7579
2019-05-16T12:19:43.994Z,13.7285
2019-05-16T12:20:47.378Z,13.7713
2019-05-16T12:21:50.280Z,13.4455
2019-05-16T12:22:53.322Z,13.5710
2019-05-16T12:23:56.346Z,13.3200
2019-05-16T12:24:59.304Z,13.0797
2019-05-16T12:26:02.353Z,12.7005
2019-05-16T12:27:07.955Z,12.7005
2019-05-16T12:28:11.346Z,12.7138
2019-05-16T12:29:17.100Z,12.9274
2019-05-16T12:30:20.304Z,12.9969
2019-05-16T12:31:23.286Z,13.2906
2019-05-16T12:32:27.684Z,13.7713
2019-05-16T12:33:30.376Z,13.3467
2019-05-16T12:34:32.453Z,13.2773
2019-05-16T12:35:36.961Z,13.3066
2019-05-16T12:36:39.258Z,13.7419
2019-05-16T12:37:41.510Z,13.4749
2019-05-16T12:38:46.623Z,13.3467
2019-05-16T12:39:50.299Z,12.9408
2019-05-16T12:40:53.309Z,12.5883
2019-05-16T12:41:59.227Z,12.6150
2019-05-16T12:43:03.305Z,12.1797
2019-05-16T12:44:07.548Z,12.3907
2019-05-16T12:45:11.318Z,12.6711
2019-05-16T12:46:14.303Z,13.1090
2019-05-16T12:47:17.327Z,13.5710
2019-05-16T12:48:20.428Z,13.3627
2019-05-16T12:49:24.327Z,13.0396
2019-05-16T12:50:28.655Z,12.8954
2019-05-16T12:51:32.328Z,13.0957
2019-05-16T12:52:38.247Z,13.1224
2019-05-16T12:53:41.367Z,13.0529
2019-05-16T12:54:43.292Z,13.0797
2019-05-16T12:55:47.633Z,13.0529
2019-05-16T12:56:51.328Z,12.9835
2019-05-16T12:57:58.830Z,12.7966
2019-05-16T12:59:02.381Z,12.7832
2019-05-16T13:00:07.229Z,13.0236
2019-05-16T13:01:10.346Z,13.1517
2019-05-16T13:02:13.268Z,12.9114
2019-05-16T13:03:15.324Z,13.0797
2019-05-16T13:04:19.269Z,13.3467
2019-05-16T13:05:22.306Z,13.2639
2019-05-16T13:06:27.601Z,13.2906
2019-05-16T13:07:31.295Z,12.8687
2019-05-16T13:08:34.380Z,13.1090
2019-05-16T13:09:37.301Z,13.1945
2019-05-16T13:10:40.326Z,13.2212
2019-05-16T13:11:43.310Z,13.0236
2019-05-16T13:12:46.304Z,13.3467
2019-05-16T13:14:02.349Z,13.7285